UAF1304 EETN-ESPA
Flight info
| Callsign | UAF1304 |
|---|---|
| Flight time | 1h 1m |
| Altitude | 28000 |
| Route | OLPED DCT KELAS DCT BODRI DCT SOPLI M607 GOSDI |
| Aircraft | A332/H-DE1FGHIJ4J5LM1ORTUVWXY/LB2D1 |
Departure
| Time | 2026-05-05 18:06 |
|---|---|
| Airport | Lennart Meri Tallinn Airport (EETN) |
Arrival
| Time | 2026-05-05 19:07 |
|---|---|
| Airport | Luleå Airport (ESPA) |
| Time | Latitude | Longitude | Altitude | Speed | Heading |
|---|---|---|---|---|---|
| 2026-05-05 17:49 | 59.41579 | 24.80845 | 168 ft | 0 kts | 180° |
| 2026-05-05 18:00 | 59.41574 | 24.80845 | 168 ft | 2 kts | 180° |
| 2026-05-05 18:00 | 59.41535 | 24.80857 | 168 ft | 8 kts | 160° |
| 2026-05-05 18:00 | 59.41507 | 24.80980 | 168 ft | 13 kts | 98° |
| 2026-05-05 18:01 | 59.41505 | 24.81196 | 168 ft | 19 kts | 90° |
| 2026-05-05 18:01 | 59.41504 | 24.81500 | 168 ft | 24 kts | 89° |
| 2026-05-05 18:01 | 59.41503 | 24.81846 | 168 ft | 26 kts | 90° |
| 2026-05-05 18:01 | 59.41503 | 24.82214 | 168 ft | 28 kts | 90° |
| 2026-05-05 18:02 | 59.41501 | 24.82602 | 168 ft | 29 kts | 90° |
| 2026-05-05 18:02 | 59.41500 | 24.82998 | 168 ft | 30 kts | 90° |
| 2026-05-05 18:02 | 59.41499 | 24.83412 | 168 ft | 31 kts | 90° |
| 2026-05-05 18:02 | 59.41497 | 24.83816 | 168 ft | 29 kts | 92° |
| 2026-05-05 18:03 | 59.41498 | 24.84215 | 168 ft | 30 kts | 90° |
| 2026-05-05 18:03 | 59.41496 | 24.84631 | 168 ft | 31 kts | 90° |
| 2026-05-05 18:03 | 59.41493 | 24.85063 | 168 ft | 32 kts | 91° |
| 2026-05-05 18:03 | 59.41494 | 24.85506 | 168 ft | 33 kts | 89° |
| 2026-05-05 18:04 | 59.41494 | 24.85960 | 168 ft | 34 kts | 90° |
| 2026-05-05 18:04 | 59.41492 | 24.86397 | 168 ft | 23 kts | 90° |
| 2026-05-05 18:04 | 59.41483 | 24.86649 | 168 ft | 17 kts | 113° |
| 2026-05-05 18:04 | 59.41402 | 24.86709 | 168 ft | 13 kts | 178° |
| 2026-05-05 18:05 | 59.41322 | 24.86670 | 168 ft | 10 kts | 232° |
| 2026-05-05 18:05 | 59.41317 | 24.86504 | 166 ft | 15 kts | 270° |
| 2026-05-05 18:05 | 59.41319 | 24.85914 | 167 ft | 83 kts | 270° |
| 2026-05-05 18:05 | 59.41322 | 24.84287 | 195 ft | 149 kts | 270° |
| 2026-05-05 18:06 | 59.41340 | 24.82236 | 747 ft | 155 kts | 272° |
| 2026-05-05 18:06 | 59.41347 | 24.80846 | 1396 ft | 146 kts | 271° |
| 2026-05-05 18:06 | 59.41480 | 24.78242 | 2391 ft | 152 kts | 281° |
| 2026-05-05 18:06 | 59.41635 | 24.76078 | 2857 ft | 169 kts | 276° |
| 2026-05-05 18:07 | 59.41758 | 24.73624 | 3351 ft | 192 kts | 276° |
| 2026-05-05 18:07 | 59.41901 | 24.70855 | 3903 ft | 215 kts | 276° |
| 2026-05-05 18:07 | 59.42079 | 24.67791 | 4501 ft | 235 kts | 277° |
| 2026-05-05 18:07 | 59.42283 | 24.64518 | 5242 ft | 245 kts | 277° |
| 2026-05-05 18:08 | 59.42498 | 24.61183 | 6222 ft | 247 kts | 277° |
| 2026-05-05 18:08 | 59.42716 | 24.57810 | 7174 ft | 248 kts | 277° |
| 2026-05-05 18:08 | 59.42935 | 24.54451 | 8221 ft | 247 kts | 275° |
| 2026-05-05 18:08 | 59.43153 | 24.51112 | 9281 ft | 246 kts | 274° |
| 2026-05-05 18:09 | 59.43370 | 24.47737 | 9862 ft | 252 kts | 273° |
| 2026-05-05 18:09 | 59.43594 | 24.44117 | 9993 ft | 282 kts | 273° |
| 2026-05-05 18:09 | 59.43837 | 24.40193 | 10103 ft | 293 kts | 274° |
| 2026-05-05 18:09 | 59.44095 | 24.36045 | 10238 ft | 319 kts | 274° |
| 2026-05-05 18:10 | 59.44371 | 24.31620 | 10590 ft | 332 kts | 274° |
| 2026-05-05 18:10 | 59.44653 | 24.27138 | 11626 ft | 329 kts | 274° |
| 2026-05-05 18:10 | 59.44934 | 24.22662 | 12577 ft | 331 kts | 273° |
| 2026-05-05 18:10 | 59.45213 | 24.18146 | 13498 ft | 334 kts | 273° |
| 2026-05-05 18:11 | 59.45487 | 24.13653 | 14349 ft | 336 kts | 273° |
| 2026-05-05 18:11 | 59.45767 | 24.09011 | 15199 ft | 340 kts | 273° |
| 2026-05-05 18:11 | 59.46041 | 24.04435 | 16038 ft | 343 kts | 273° |
| 2026-05-05 18:11 | 59.46320 | 23.99754 | 16929 ft | 346 kts | 273° |
| 2026-05-05 18:12 | 59.46601 | 23.95048 | 17902 ft | 347 kts | 272° |
| 2026-05-05 18:12 | 59.46881 | 23.90293 | 18669 ft | 352 kts | 272° |
| 2026-05-05 18:12 | 59.47162 | 23.85489 | 19434 ft | 356 kts | 272° |
| 2026-05-05 18:12 | 59.47445 | 23.80623 | 20207 ft | 360 kts | 272° |
| 2026-05-05 18:13 | 59.47730 | 23.75693 | 20984 ft | 364 kts | 272° |
| 2026-05-05 18:13 | 59.48015 | 23.70715 | 21772 ft | 369 kts | 272° |
| 2026-05-05 18:13 | 59.48303 | 23.65666 | 22562 ft | 373 kts | 272° |
| 2026-05-05 18:13 | 59.48593 | 23.60556 | 23353 ft | 378 kts | 272° |
| 2026-05-05 18:14 | 59.48883 | 23.55392 | 24038 ft | 382 kts | 272° |
| 2026-05-05 18:14 | 59.49174 | 23.50180 | 24749 ft | 385 kts | 272° |
| 2026-05-05 18:14 | 59.49466 | 23.44908 | 25436 ft | 389 kts | 272° |
| 2026-05-05 18:14 | 59.49758 | 23.39592 | 26108 ft | 393 kts | 272° |
| 2026-05-05 18:15 | 59.50052 | 23.34202 | 26778 ft | 397 kts | 272° |
| 2026-05-05 18:15 | 59.50346 | 23.28764 | 27377 ft | 401 kts | 272° |
| 2026-05-05 18:15 | 59.50640 | 23.23321 | 27491 ft | 399 kts | 272° |
| 2026-05-05 18:15 | 59.50930 | 23.17885 | 27603 ft | 400 kts | 272° |
| 2026-05-05 18:16 | 59.51217 | 23.12491 | 27725 ft | 401 kts | 272° |
| 2026-05-05 18:16 | 59.51498 | 23.07022 | 27837 ft | 402 kts | 271° |
| 2026-05-05 18:16 | 59.51774 | 23.01538 | 27859 ft | 402 kts | 271° |
| 2026-05-05 18:16 | 59.52049 | 22.96055 | 27860 ft | 402 kts | 271° |
| 2026-05-05 18:17 | 59.52322 | 22.90567 | 27864 ft | 402 kts | 271° |
| 2026-05-05 18:17 | 59.52594 | 22.85078 | 27866 ft | 402 kts | 271° |
| 2026-05-05 18:17 | 59.52863 | 22.79598 | 27868 ft | 402 kts | 271° |
| 2026-05-05 18:17 | 59.53129 | 22.74134 | 27862 ft | 402 kts | 271° |
| 2026-05-05 18:18 | 59.53394 | 22.68637 | 27864 ft | 402 kts | 271° |
| 2026-05-05 18:18 | 59.53656 | 22.63163 | 27876 ft | 400 kts | 271° |
| 2026-05-05 18:18 | 59.53914 | 22.57726 | 27865 ft | 398 kts | 271° |
| 2026-05-05 18:18 | 59.54170 | 22.52290 | 27866 ft | 399 kts | 271° |
| 2026-05-05 18:19 | 59.54423 | 22.46846 | 27865 ft | 399 kts | 271° |
| 2026-05-05 18:19 | 59.54671 | 22.41464 | 27865 ft | 399 kts | 271° |
| 2026-05-05 18:19 | 59.54920 | 22.36013 | 27863 ft | 399 kts | 271° |
| 2026-05-05 18:19 | 59.55167 | 22.30569 | 27862 ft | 399 kts | 271° |
| 2026-05-05 18:20 | 59.55411 | 22.25116 | 27863 ft | 399 kts | 271° |
| 2026-05-05 18:20 | 59.55653 | 22.19685 | 27863 ft | 399 kts | 271° |
| 2026-05-05 18:20 | 59.55893 | 22.14220 | 27861 ft | 399 kts | 271° |
| 2026-05-05 18:20 | 59.56131 | 22.08776 | 27865 ft | 399 kts | 271° |
| 2026-05-05 18:21 | 59.56366 | 22.03328 | 27866 ft | 399 kts | 271° |
| 2026-05-05 18:21 | 59.56412 | 22.02262 | 27865 ft | 399 kts | 271° |
| 2026-05-05 18:21 | 59.56557 | 21.98883 | 28116 ft | 398 kts | 270° |
| 2026-05-05 18:21 | 59.56789 | 21.93407 | 28584 ft | 402 kts | 270° |
| 2026-05-05 18:22 | 59.57019 | 21.87899 | 28799 ft | 404 kts | 270° |
| 2026-05-05 18:22 | 59.57250 | 21.82389 | 28614 ft | 401 kts | 270° |
| 2026-05-05 18:22 | 59.57385 | 21.79136 | 28337 ft | 399 kts | 270° |
| 2026-05-05 18:22 | 59.57521 | 21.75820 | 28125 ft | 397 kts | 270° |
| 2026-05-05 18:23 | 59.57742 | 21.70389 | 27688 ft | 399 kts | 270° |
| 2026-05-05 18:23 | 59.57970 | 21.64891 | 27280 ft | 407 kts | 272° |
| 2026-05-05 18:23 | 59.58535 | 21.59345 | 27370 ft | 418 kts | 281° |
| 2026-05-05 18:23 | 59.59584 | 21.53976 | 27754 ft | 419 kts | 289° |
| 2026-05-05 18:24 | 59.61071 | 21.49002 | 27870 ft | 424 kts | 297° |
| 2026-05-05 18:24 | 59.62872 | 21.44339 | 27867 ft | 427 kts | 299° |
| 2026-05-05 18:24 | 59.64667 | 21.39740 | 27861 ft | 427 kts | 299° |
| 2026-05-05 18:24 | 59.66499 | 21.35030 | 27875 ft | 426 kts | 299° |
| 2026-05-05 18:25 | 59.68301 | 21.30384 | 27865 ft | 425 kts | 299° |
| 2026-05-05 18:25 | 59.69494 | 21.27295 | 27865 ft | 427 kts | 299° |
| 2026-05-05 18:25 | 59.71899 | 21.21040 | 27864 ft | 432 kts | 299° |
| 2026-05-05 18:25 | 59.73722 | 21.16299 | 27864 ft | 431 kts | 299° |
| 2026-05-05 18:26 | 59.75539 | 21.11566 | 27864 ft | 431 kts | 298° |
| 2026-05-05 18:26 | 59.77354 | 21.06830 | 27864 ft | 431 kts | 298° |
| 2026-05-05 18:26 | 59.79166 | 21.02086 | 27864 ft | 431 kts | 298° |
| 2026-05-05 18:26 | 59.80980 | 20.97331 | 27864 ft | 431 kts | 298° |
| 2026-05-05 18:27 | 59.82785 | 20.92585 | 27862 ft | 431 kts | 298° |
| 2026-05-05 18:27 | 59.84593 | 20.87824 | 27862 ft | 431 kts | 298° |
| 2026-05-05 18:27 | 59.86375 | 20.83123 | 27891 ft | 430 kts | 298° |
| 2026-05-05 18:27 | 59.88170 | 20.78381 | 27864 ft | 428 kts | 298° |
| 2026-05-05 18:28 | 59.91744 | 20.68899 | 27864 ft | 428 kts | 298° |
| 2026-05-05 18:28 | 59.93533 | 20.64137 | 27864 ft | 428 kts | 298° |
| 2026-05-05 18:28 | 59.95318 | 20.59379 | 27864 ft | 428 kts | 298° |
| 2026-05-05 18:29 | 59.97105 | 20.54606 | 27862 ft | 428 kts | 298° |
| 2026-05-05 18:29 | 59.98886 | 20.49838 | 27862 ft | 428 kts | 298° |
| 2026-05-05 18:29 | 60.00668 | 20.45059 | 27864 ft | 428 kts | 298° |
| 2026-05-05 18:29 | 60.02444 | 20.40286 | 27867 ft | 428 kts | 298° |
| 2026-05-05 18:30 | 60.04216 | 20.35515 | 27871 ft | 428 kts | 298° |
| 2026-05-05 18:30 | 60.05992 | 20.30721 | 27906 ft | 428 kts | 298° |
| 2026-05-05 18:30 | 60.07759 | 20.25946 | 27875 ft | 424 kts | 298° |
| 2026-05-05 18:30 | 60.09509 | 20.21206 | 27879 ft | 424 kts | 298° |
| 2026-05-05 18:31 | 60.11265 | 20.16435 | 27885 ft | 425 kts | 298° |
| 2026-05-05 18:31 | 60.13019 | 20.11658 | 27882 ft | 425 kts | 298° |
| 2026-05-05 18:31 | 60.14766 | 20.06894 | 27884 ft | 424 kts | 298° |
| 2026-05-05 18:31 | 60.16514 | 20.02120 | 27884 ft | 424 kts | 298° |
| 2026-05-05 18:32 | 60.18240 | 19.97394 | 27884 ft | 424 kts | 298° |
| 2026-05-05 18:32 | 60.20006 | 19.92549 | 27884 ft | 424 kts | 298° |
| 2026-05-05 18:32 | 60.21750 | 19.87756 | 27883 ft | 424 kts | 298° |
| 2026-05-05 18:32 | 60.23472 | 19.83012 | 27882 ft | 424 kts | 298° |
| 2026-05-05 18:33 | 60.25213 | 19.78208 | 27880 ft | 424 kts | 298° |
| 2026-05-05 18:33 | 60.26951 | 19.73400 | 27876 ft | 424 kts | 297° |
| 2026-05-05 18:33 | 60.28683 | 19.68599 | 27859 ft | 424 kts | 297° |
| 2026-05-05 18:33 | 60.30418 | 19.63782 | 27859 ft | 424 kts | 297° |
| 2026-05-05 18:34 | 60.32146 | 19.58971 | 27859 ft | 424 kts | 297° |
| 2026-05-05 18:34 | 60.33875 | 19.54149 | 27859 ft | 424 kts | 297° |
| 2026-05-05 18:34 | 60.35601 | 19.49326 | 27859 ft | 424 kts | 297° |
| 2026-05-05 18:34 | 60.37329 | 19.44489 | 27859 ft | 424 kts | 297° |
| 2026-05-05 18:35 | 60.39050 | 19.39658 | 27860 ft | 424 kts | 297° |
| 2026-05-05 18:35 | 60.40769 | 19.34824 | 27859 ft | 424 kts | 297° |
| 2026-05-05 18:35 | 60.42536 | 19.30030 | 27855 ft | 429 kts | 302° |
| 2026-05-05 18:35 | 60.44719 | 19.25790 | 27860 ft | 444 kts | 313° |
| 2026-05-05 18:36 | 60.47390 | 19.22460 | 27894 ft | 459 kts | 324° |
| 2026-05-05 18:36 | 60.50405 | 19.20272 | 27863 ft | 473 kts | 335° |
| 2026-05-05 18:36 | 60.53766 | 19.19301 | 27885 ft | 493 kts | 347° |
| 2026-05-05 18:36 | 60.57216 | 19.19640 | 27855 ft | 515 kts | 357° |
| 2026-05-05 18:37 | 60.60782 | 19.20984 | 27860 ft | 522 kts | 1° |
| 2026-05-05 18:37 | 60.64339 | 19.22529 | 27851 ft | 522 kts | 1° |
| 2026-05-05 18:37 | 60.67891 | 19.23966 | 27857 ft | 520 kts | 0° |
| 2026-05-05 18:37 | 60.71452 | 19.25263 | 27847 ft | 518 kts | 359° |
| 2026-05-05 18:38 | 60.73805 | 19.26063 | 27852 ft | 517 kts | 359° |
| 2026-05-05 18:38 | 60.77359 | 19.27224 | 27854 ft | 517 kts | 358° |
| 2026-05-05 18:38 | 60.80915 | 19.28361 | 27847 ft | 517 kts | 358° |
| 2026-05-05 18:38 | 60.84475 | 19.29494 | 27929 ft | 517 kts | 358° |
| 2026-05-05 18:39 | 60.88048 | 19.30631 | 27846 ft | 521 kts | 358° |
| 2026-05-05 18:39 | 60.91629 | 19.31778 | 27842 ft | 521 kts | 358° |
| 2026-05-05 18:39 | 60.95208 | 19.32931 | 27845 ft | 521 kts | 358° |
| 2026-05-05 18:39 | 60.98785 | 19.34086 | 27845 ft | 521 kts | 358° |
| 2026-05-05 18:40 | 61.02368 | 19.35245 | 27840 ft | 521 kts | 358° |
| 2026-05-05 18:40 | 61.05939 | 19.36404 | 27837 ft | 521 kts | 358° |
| 2026-05-05 18:40 | 61.09518 | 19.37567 | 27837 ft | 521 kts | 358° |
| 2026-05-05 18:40 | 61.13107 | 19.38736 | 27837 ft | 521 kts | 358° |
| 2026-05-05 18:41 | 61.16686 | 19.39901 | 27834 ft | 520 kts | 359° |
| 2026-05-05 18:41 | 61.20262 | 19.41071 | 27837 ft | 520 kts | 359° |
| 2026-05-05 18:41 | 61.23839 | 19.42244 | 27820 ft | 520 kts | 359° |
| 2026-05-05 18:41 | 61.27419 | 19.43422 | 27831 ft | 520 kts | 359° |
| 2026-05-05 18:42 | 61.30991 | 19.44600 | 27832 ft | 520 kts | 359° |
| 2026-05-05 18:42 | 61.34525 | 19.45768 | 27834 ft | 520 kts | 359° |
| 2026-05-05 18:42 | 61.38154 | 19.46969 | 27831 ft | 520 kts | 359° |
| 2026-05-05 18:42 | 61.41684 | 19.48141 | 27812 ft | 520 kts | 359° |
| 2026-05-05 18:43 | 61.45264 | 19.49329 | 27843 ft | 519 kts | 359° |
| 2026-05-05 18:43 | 61.48823 | 19.50513 | 27823 ft | 518 kts | 360° |
| 2026-05-05 18:43 | 61.52395 | 19.51707 | 27817 ft | 518 kts | 360° |
| 2026-05-05 18:43 | 61.55962 | 19.52902 | 27817 ft | 519 kts | 360° |
| 2026-05-05 18:44 | 61.59526 | 19.54100 | 27821 ft | 518 kts | 360° |
| 2026-05-05 18:44 | 61.63092 | 19.55300 | 27813 ft | 518 kts | 360° |
| 2026-05-05 18:44 | 61.66652 | 19.56501 | 27811 ft | 518 kts | 360° |
| 2026-05-05 18:44 | 61.70213 | 19.57705 | 27814 ft | 518 kts | 360° |
| 2026-05-05 18:45 | 61.73726 | 19.58895 | 27880 ft | 518 kts | 0° |
| 2026-05-05 18:45 | 61.77278 | 19.60096 | 27808 ft | 513 kts | 1° |
| 2026-05-05 18:45 | 61.80798 | 19.61290 | 27824 ft | 512 kts | 2° |
| 2026-05-05 18:45 | 61.84299 | 19.62482 | 27807 ft | 508 kts | 2° |
| 2026-05-05 18:46 | 61.87803 | 19.63677 | 27799 ft | 510 kts | 2° |
| 2026-05-05 18:46 | 61.91311 | 19.64877 | 27799 ft | 510 kts | 2° |
| 2026-05-05 18:46 | 61.94773 | 19.66066 | 27799 ft | 510 kts | 2° |
| 2026-05-05 18:46 | 61.98272 | 19.67271 | 27793 ft | 510 kts | 2° |
| 2026-05-05 18:47 | 62.01778 | 19.68482 | 27795 ft | 510 kts | 2° |
| 2026-05-05 18:47 | 62.05274 | 19.69689 | 27801 ft | 507 kts | 3° |
| 2026-05-05 18:47 | 62.09741 | 19.71237 | 27786 ft | 506 kts | 3° |
| 2026-05-05 18:47 | 62.13438 | 19.72522 | 27784 ft | 507 kts | 3° |
| 2026-05-05 18:48 | 62.19265 | 19.74556 | 27786 ft | 507 kts | 3° |
| 2026-05-05 18:48 | 62.25116 | 19.76606 | 27779 ft | 507 kts | 3° |
| 2026-05-05 18:48 | 62.32082 | 19.79057 | 27780 ft | 507 kts | 3° |
| 2026-05-05 18:48 | 62.39019 | 19.81505 | 27773 ft | 504 kts | 4° |
| 2026-05-05 18:49 | 62.45917 | 19.84531 | 27769 ft | 507 kts | 7° |
| 2026-05-05 18:49 | 62.52823 | 19.87785 | 27768 ft | 507 kts | 7° |
| 2026-05-05 18:49 | 62.60577 | 19.91455 | 27762 ft | 507 kts | 7° |
| 2026-05-05 18:49 | 62.69558 | 19.95757 | 27752 ft | 504 kts | 7° |
| 2026-05-05 18:50 | 62.76406 | 19.99063 | 27755 ft | 504 kts | 7° |
| 2026-05-05 18:50 | 62.88096 | 20.04739 | 27744 ft | 504 kts | 7° |
| 2026-05-05 18:50 | 62.96574 | 20.08883 | 27738 ft | 501 kts | 8° |
| 2026-05-05 18:50 | 63.00051 | 20.10592 | 27738 ft | 501 kts | 8° |
| 2026-05-05 18:51 | 63.11015 | 20.16005 | 27730 ft | 502 kts | 8° |
| 2026-05-05 18:51 | 63.18168 | 20.19559 | 27721 ft | 502 kts | 8° |
| 2026-05-05 18:51 | 63.25262 | 20.23102 | 27722 ft | 502 kts | 8° |
| 2026-05-05 18:51 | 63.40253 | 20.30587 | 27716 ft | 501 kts | 8° |
| 2026-05-05 18:52 | 63.46049 | 20.33563 | 27716 ft | 502 kts | 9° |
| 2026-05-05 18:52 | 63.52866 | 20.37089 | 27732 ft | 502 kts | 9° |
| 2026-05-05 18:52 | 63.59610 | 20.40549 | 27723 ft | 496 kts | 9° |
| 2026-05-05 18:52 | 63.66343 | 20.44012 | 27713 ft | 497 kts | 9° |
| 2026-05-05 18:53 | 63.74599 | 20.48280 | 27724 ft | 497 kts | 9° |
| 2026-05-05 18:53 | 63.88051 | 20.55282 | 27715 ft | 495 kts | 10° |
| 2026-05-05 18:53 | 63.98352 | 20.60691 | 27701 ft | 495 kts | 10° |
| 2026-05-05 18:53 | 64.05060 | 20.64239 | 27678 ft | 496 kts | 10° |
| 2026-05-05 18:54 | 64.11788 | 20.67815 | 27679 ft | 496 kts | 10° |
| 2026-05-05 18:54 | 64.18482 | 20.71388 | 27671 ft | 493 kts | 10° |
| 2026-05-05 18:54 | 64.25139 | 20.75425 | 27672 ft | 496 kts | 17° |
| 2026-05-05 18:54 | 64.31661 | 20.80743 | 27662 ft | 496 kts | 17° |
| 2026-05-05 18:55 | 64.38152 | 20.85954 | 26888 ft | 490 kts | 17° |
| 2026-05-05 18:55 | 64.42704 | 20.89646 | 26095 ft | 482 kts | 17° |
| 2026-05-05 18:55 | 64.45855 | 20.92217 | 25584 ft | 476 kts | 18° |
| 2026-05-05 18:55 | 64.48956 | 20.94722 | 25062 ft | 469 kts | 17° |
| 2026-05-05 18:56 | 64.51989 | 20.97333 | 24546 ft | 463 kts | 22° |
| 2026-05-05 18:56 | 64.54810 | 21.00910 | 24028 ft | 459 kts | 32° |
| 2026-05-05 18:56 | 64.57456 | 21.05012 | 23534 ft | 453 kts | 33° |
| 2026-05-05 18:56 | 64.60046 | 21.09136 | 22977 ft | 449 kts | 33° |
| 2026-05-05 18:57 | 64.62599 | 21.13308 | 22475 ft | 447 kts | 34° |
| 2026-05-05 18:57 | 64.65119 | 21.17501 | 21919 ft | 443 kts | 34° |
| 2026-05-05 18:57 | 64.67573 | 21.21622 | 21317 ft | 437 kts | 34° |
| 2026-05-05 18:57 | 64.70015 | 21.25746 | 20611 ft | 434 kts | 34° |
| 2026-05-05 18:58 | 64.72448 | 21.29864 | 20030 ft | 428 kts | 35° |
| 2026-05-05 18:58 | 64.74838 | 21.33907 | 19654 ft | 418 kts | 36° |
| 2026-05-05 18:58 | 64.77177 | 21.37879 | 19043 ft | 413 kts | 36° |
| 2026-05-05 18:58 | 64.79503 | 21.41843 | 18349 ft | 411 kts | 36° |
| 2026-05-05 18:59 | 64.81805 | 21.45774 | 17787 ft | 406 kts | 36° |
| 2026-05-05 18:59 | 64.84090 | 21.49687 | 17189 ft | 406 kts | 36° |
| 2026-05-05 18:59 | 64.86364 | 21.53589 | 16737 ft | 404 kts | 35° |
| 2026-05-05 18:59 | 64.88620 | 21.57469 | 16154 ft | 398 kts | 35° |
| 2026-05-05 19:00 | 64.90821 | 21.61258 | 15318 ft | 397 kts | 35° |
| 2026-05-05 19:00 | 64.93050 | 21.65102 | 14512 ft | 396 kts | 34° |
| 2026-05-05 19:00 | 64.95256 | 21.68915 | 13696 ft | 387 kts | 34° |
| 2026-05-05 19:00 | 64.97397 | 21.72626 | 12772 ft | 376 kts | 34° |
| 2026-05-05 19:01 | 64.99479 | 21.76241 | 11858 ft | 366 kts | 34° |
| 2026-05-05 19:01 | 65.01507 | 21.79772 | 10956 ft | 358 kts | 34° |
| 2026-05-05 19:01 | 65.03473 | 21.83202 | 10679 ft | 349 kts | 33° |
| 2026-05-05 19:01 | 65.05475 | 21.86688 | 10637 ft | 360 kts | 33° |
| 2026-05-05 19:02 | 65.07483 | 21.90196 | 10540 ft | 355 kts | 33° |
| 2026-05-05 19:02 | 65.09465 | 21.93673 | 10077 ft | 354 kts | 33° |
| 2026-05-05 19:02 | 65.16977 | 22.06935 | 7872 ft | 331 kts | 33° |
| 2026-05-05 19:02 | 65.28286 | 22.26955 | 5555 ft | 255 kts | 32° |
| 2026-05-05 19:03 | 65.32688 | 22.34855 | 4389 ft | 231 kts | 33° |
| 2026-05-05 19:03 | 65.35175 | 22.39335 | 3719 ft | 216 kts | 33° |
| 2026-05-05 19:03 | 65.37500 | 22.43392 | 3207 ft | 199 kts | 22° |
| 2026-05-05 19:03 | 65.39905 | 22.43336 | 3039 ft | 163 kts | 331° |
| 2026-05-05 19:04 | 65.41779 | 22.40010 | 2913 ft | 161 kts | 317° |
| 2026-05-05 19:04 | 65.44223 | 22.34653 | 2451 ft | 146 kts | 316° |
| 2026-05-05 19:04 | 65.45638 | 22.31532 | 2073 ft | 132 kts | 316° |
| 2026-05-05 19:04 | 65.46908 | 22.28729 | 1735 ft | 120 kts | 316° |
| 2026-05-05 19:05 | 65.48162 | 22.25956 | 1421 ft | 125 kts | 316° |
| 2026-05-05 19:05 | 65.49423 | 22.23169 | 1070 ft | 121 kts | 316° |
| 2026-05-05 19:05 | 65.50493 | 22.20836 | 758 ft | 128 kts | 317° |
| 2026-05-05 19:05 | 65.51146 | 22.19387 | 579 ft | 126 kts | 315° |
| 2026-05-05 19:06 | 65.51805 | 22.17916 | 413 ft | 131 kts | 315° |
| 2026-05-05 19:06 | 65.52456 | 22.16472 | 268 ft | 131 kts | 315° |
| 2026-05-05 19:06 | 65.53134 | 22.14966 | 96 ft | 128 kts | 316° |
| 2026-05-05 19:06 | 65.53767 | 22.13560 | 41 ft | 108 kts | 318° |
| 2026-05-05 19:07 | 65.54107 | 22.12805 | 45 ft | 38 kts | 317° |
| 2026-05-05 19:07 | 65.54303 | 22.12373 | 47 ft | 43 kts | 317° |
| 2026-05-05 19:07 | 65.54543 | 22.11830 | 48 ft | 46 kts | 316° |
| 2026-05-05 19:07 | 65.54717 | 22.11440 | 51 ft | 17 kts | 311° |
| 2026-05-05 19:08 | 65.54702 | 22.11233 | 54 ft | 12 kts | 227° |
| 2026-05-05 19:08 | 65.54651 | 22.11056 | 53 ft | 13 kts | 250° |
| 2026-05-05 19:08 | 65.54669 | 22.10843 | 60 ft | 13 kts | 287° |
| 2026-05-05 19:08 | 65.54650 | 22.10646 | 54 ft | 12 kts | 237° |
| 2026-05-05 19:09 | 65.54589 | 22.10477 | 53 ft | 14 kts | 228° |
| 2026-05-05 19:09 | 65.54604 | 22.10373 | 54 ft | 7 kts | 345° |
| 2026-05-05 19:09 | 65.54627 | 22.10419 | 58 ft | 3 kts | 63° |
| 2026-05-05 19:09 | 65.54631 | 22.10448 | 55 ft | 0 kts | 69° |